sensor_id;sensor_type;location;lat;lon;timestamp;P1;durP1;ratioP1;P2;durP2;ratioP2
29092;SDS011;16167;48.768;14.984;2024-03-02T00:01:06;65.43;;;34.83;;
29092;SDS011;16167;48.768;14.984;2024-03-02T00:03:36;71.07;;;35.22;;
29092;SDS011;16167;48.768;14.984;2024-03-02T00:06:04;73.80;;;35.92;;
29092;SDS011;16167;48.768;14.984;2024-03-02T00:11:02;68.28;;;33.00;;
29092;SDS011;16167;48.768;14.984;2024-03-02T00:13:32;52.67;;;27.38;;
29092;SDS011;16167;48.768;14.984;2024-03-02T00:16:02;68.53;;;34.40;;
29092;SDS011;16167;48.768;14.984;2024-03-02T00:18:33;78.78;;;38.72;;
29092;SDS011;16167;48.768;14.984;2024-03-02T00:21:03;85.65;;;39.90;;
29092;SDS011;16167;48.768;14.984;2024-03-02T00:23:36;99.13;;;43.00;;
29092;SDS011;16167;48.768;14.984;2024-03-02T00:26:05;93.13;;;43.97;;
29092;SDS011;16167;48.768;14.984;2024-03-02T00:28:36;99.72;;;43.97;;
29092;SDS011;16167;48.768;14.984;2024-03-02T00:31:05;96.82;;;44.03;;
29092;SDS011;16167;48.768;14.984;2024-03-02T00:36:03;92.93;;;42.08;;
29092;SDS011;16167;48.768;14.984;2024-03-02T00:38:33;94.90;;;44.60;;
29092;SDS011;16167;48.768;14.984;2024-03-02T00:41:04;103.18;;;46.08;;
29092;SDS011;16167;48.768;14.984;2024-03-02T00:43:45;93.43;;;44.60;;
29092;SDS011;16167;48.768;14.984;2024-03-02T00:46:16;95.03;;;42.80;;
29092;SDS011;16167;48.768;14.984;2024-03-02T00:48:53;96.88;;;43.17;;
29092;SDS011;16167;48.768;14.984;2024-03-02T00:51:23;95.07;;;44.47;;
29092;SDS011;16167;48.768;14.984;2024-03-02T00:53:53;93.82;;;41.88;;
29092;SDS011;16167;48.768;14.984;2024-03-02T00:56:23;101.07;;;45.65;;
29092;SDS011;16167;48.768;14.984;2024-03-02T00:58:54;89.55;;;42.13;;
29092;SDS011;16167;48.768;14.984;2024-03-02T01:03:50;83.32;;;39.42;;
29092;SDS011;16167;48.768;14.984;2024-03-02T01:06:19;91.28;;;40.55;;
29092;SDS011;16167;48.768;14.984;2024-03-02T01:11:19;92.97;;;42.42;;
29092;SDS011;16167;48.768;14.984;2024-03-02T01:13:49;91.70;;;41.58;;
29092;SDS011;16167;48.768;14.984;2024-03-02T01:16:20;94.47;;;44.53;;
29092;SDS011;16167;48.768;14.984;2024-03-02T01:18:48;97.05;;;44.10;;
29092;SDS011;16167;48.768;14.984;2024-03-02T01:21:17;97.15;;;45.50;;
29092;SDS011;16167;48.768;14.984;2024-03-02T01:23:45;96.05;;;44.60;;
29092;SDS011;16167;48.768;14.984;2024-03-02T01:26:14;99.00;;;46.00;;
29092;SDS011;16167;48.768;14.984;2024-03-02T01:28:42;109.15;;;46.75;;
29092;SDS011;16167;48.768;14.984;2024-03-02T01:31:10;88.80;;;41.50;;
29092;SDS011;16167;48.768;14.984;2024-03-02T01:33:40;95.77;;;45.70;;
29092;SDS011;16167;48.768;14.984;2024-03-02T01:36:09;97.30;;;45.72;;
29092;SDS011;16167;48.768;14.984;2024-03-02T01:38:37;85.55;;;41.28;;
29092;SDS011;16167;48.768;14.984;2024-03-02T01:41:05;92.70;;;46.85;;
29092;SDS011;16167;48.768;14.984;2024-03-02T01:43:33;98.85;;;47.53;;
29092;SDS011;16167;48.768;14.984;2024-03-02T01:46:05;105.38;;;48.65;;
29092;SDS011;16167;48.768;14.984;2024-03-02T01:48:33;97.68;;;47.13;;
29092;SDS011;16167;48.768;14.984;2024-03-02T01:51:03;100.53;;;49.17;;
29092;SDS011;16167;48.768;14.984;2024-03-02T01:53:32;93.15;;;45.45;;
29092;SDS011;16167;48.768;14.984;2024-03-02T01:56:01;98.10;;;47.10;;
29092;SDS011;16167;48.768;14.984;2024-03-02T01:58:29;91.95;;;46.95;;
29092;SDS011;16167;48.768;14.984;2024-03-02T02:03:39;97.20;;;47.13;;
29092;SDS011;16167;48.768;14.984;2024-03-02T02:06:09;90.30;;;44.63;;
29092;SDS011;16167;48.768;14.984;2024-03-02T02:08:38;95.07;;;46.15;;
29092;SDS011;16167;48.768;14.984;2024-03-02T02:11:06;92.97;;;46.60;;
29092;SDS011;16167;48.768;14.984;2024-03-02T02:13:35;87.70;;;44.43;;
29092;SDS011;16167;48.768;14.984;2024-03-02T02:16:04;90.30;;;45.65;;
29092;SDS011;16167;48.768;14.984;2024-03-02T02:18:33;91.63;;;46.30;;
29092;SDS011;16167;48.768;14.984;2024-03-02T02:21:02;88.00;;;46.15;;
29092;SDS011;16167;48.768;14.984;2024-03-02T02:23:32;85.53;;;43.07;;
29092;SDS011;16167;48.768;14.984;2024-03-02T02:30:58;94.50;;;44.33;;
29092;SDS011;16167;48.768;14.984;2024-03-02T02:35:55;84.55;;;40.88;;
29092;SDS011;16167;48.768;14.984;2024-03-02T02:38:24;91.03;;;45.25;;
29092;SDS011;16167;48.768;14.984;2024-03-02T02:40:54;88.00;;;45.47;;
29092;SDS011;16167;48.768;14.984;2024-03-02T02:43:22;83.15;;;43.70;;
29092;SDS011;16167;48.768;14.984;2024-03-02T02:45:50;80.65;;;42.70;;
29092;SDS011;16167;48.768;14.984;2024-03-02T02:48:18;78.00;;;40.90;;
29092;SDS011;16167;48.768;14.984;2024-03-02T02:50:47;74.38;;;40.50;;
29092;SDS011;16167;48.768;14.984;2024-03-02T02:53:15;73.82;;;39.55;;
29092;SDS011;16167;48.768;14.984;2024-03-02T02:55:44;58.27;;;30.63;;
29092;SDS011;16167;48.768;14.984;2024-03-02T02:58:13;79.13;;;40.38;;
29092;SDS011;16167;48.768;14.984;2024-03-02T03:00:42;71.25;;;39.83;;
29092;SDS011;16167;48.768;14.984;2024-03-02T03:03:10;75.72;;;39.45;;
29092;SDS011;16167;48.768;14.984;2024-03-02T03:05:38;67.18;;;37.58;;
29092;SDS011;16167;48.768;14.984;2024-03-02T03:08:06;73.10;;;39.13;;
29092;SDS011;16167;48.768;14.984;2024-03-02T03:10:35;79.20;;;40.30;;
29092;SDS011;16167;48.768;14.984;2024-03-02T03:13:03;71.68;;;39.95;;
29092;SDS011;16167;48.768;14.984;2024-03-02T03:15:36;72.50;;;38.83;;
29092;SDS011;16167;48.768;14.984;2024-03-02T03:18:04;69.70;;;38.05;;
29092;SDS011;16167;48.768;14.984;2024-03-02T03:23:02;67.93;;;36.30;;
29092;SDS011;16167;48.768;14.984;2024-03-02T03:25:31;66.95;;;36.63;;
29092;SDS011;16167;48.768;14.984;2024-03-02T03:27:59;67.88;;;35.10;;
29092;SDS011;16167;48.768;14.984;2024-03-02T03:30:29;67.75;;;35.20;;
29092;SDS011;16167;48.768;14.984;2024-03-02T03:32:59;74.07;;;38.63;;
29092;SDS011;16167;48.768;14.984;2024-03-02T03:35:27;70.95;;;38.72;;
29092;SDS011;16167;48.768;14.984;2024-03-02T03:37:55;69.05;;;37.22;;
29092;SDS011;16167;48.768;14.984;2024-03-02T03:40:24;70.35;;;37.13;;
29092;SDS011;16167;48.768;14.984;2024-03-02T03:42:52;72.38;;;37.53;;
29092;SDS011;16167;48.768;14.984;2024-03-02T03:45:22;74.15;;;37.97;;
29092;SDS011;16167;48.768;14.984;2024-03-02T03:47:52;71.93;;;37.67;;
29092;SDS011;16167;48.768;14.984;2024-03-02T03:50:22;66.32;;;35.72;;
29092;SDS011;16167;48.768;14.984;2024-03-02T03:52:50;61.13;;;34.75;;
29092;SDS011;16167;48.768;14.984;2024-03-02T03:55:19;65.32;;;33.45;;
29092;SDS011;16167;48.768;14.984;2024-03-02T03:57:47;59.08;;;32.78;;
29092;SDS011;16167;48.768;14.984;2024-03-02T04:00:14;57.15;;;31.35;;
29092;SDS011;16167;48.768;14.984;2024-03-02T04:02:43;66.70;;;32.92;;
29092;SDS011;16167;48.768;14.984;2024-03-02T04:05:11;58.55;;;31.48;;
29092;SDS011;16167;48.768;14.984;2024-03-02T04:10:10;59.30;;;32.35;;
29092;SDS011;16167;48.768;14.984;2024-03-02T04:12:39;63.22;;;33.28;;
29092;SDS011;16167;48.768;14.984;2024-03-02T04:15:07;68.07;;;35.10;;
29092;SDS011;16167;48.768;14.984;2024-03-02T04:17:36;69.40;;;34.83;;
29092;SDS011;16167;48.768;14.984;2024-03-02T04:20:04;62.50;;;32.95;;
29092;SDS011;16167;48.768;14.984;2024-03-02T04:25:04;68.03;;;34.03;;
29092;SDS011;16167;48.768;14.984;2024-03-02T04:27:33;72.32;;;34.67;;
29092;SDS011;16167;48.768;14.984;2024-03-02T04:30:02;67.97;;;34.42;;
29092;SDS011;16167;48.768;14.984;2024-03-02T04:32:32;65.82;;;33.40;;
29092;SDS011;16167;48.768;14.984;2024-03-02T04:35:00;63.47;;;32.55;;
29092;SDS011;16167;48.768;14.984;2024-03-02T04:37:28;63.50;;;33.33;;
29092;SDS011;16167;48.768;14.984;2024-03-02T04:39:57;61.25;;;32.50;;
29092;SDS011;16167;48.768;14.984;2024-03-02T04:42:26;61.65;;;33.38;;
29092;SDS011;16167;48.768;14.984;2024-03-02T04:44:54;60.88;;;31.95;;
29092;SDS011;16167;48.768;14.984;2024-03-02T04:47:22;65.15;;;31.75;;
29092;SDS011;16167;48.768;14.984;2024-03-02T04:49:50;55.05;;;30.80;;
29092;SDS011;16167;48.768;14.984;2024-03-02T04:52:19;64.43;;;32.38;;
29092;SDS011;16167;48.768;14.984;2024-03-02T04:54:47;64.82;;;32.72;;
29092;SDS011;16167;48.768;14.984;2024-03-02T04:57:34;62.70;;;31.60;;
29092;SDS011;16167;48.768;14.984;2024-03-02T05:00:02;66.72;;;33.88;;
29092;SDS011;16167;48.768;14.984;2024-03-02T05:02:33;64.20;;;34.67;;
29092;SDS011;16167;48.768;14.984;2024-03-02T05:05:01;59.53;;;31.05;;
29092;SDS011;16167;48.768;14.984;2024-03-02T05:07:30;55.90;;;31.38;;
29092;SDS011;16167;48.768;14.984;2024-03-02T05:09:59;62.58;;;32.47;;
29092;SDS011;16167;48.768;14.984;2024-03-02T05:12:27;65.67;;;32.10;;
29092;SDS011;16167;48.768;14.984;2024-03-02T05:15:23;61.95;;;30.85;;
29092;SDS011;16167;48.768;14.984;2024-03-02T05:17:52;56.55;;;30.00;;
29092;SDS011;16167;48.768;14.984;2024-03-02T05:20:20;62.83;;;31.17;;
29092;SDS011;16167;48.768;14.984;2024-03-02T05:22:48;57.95;;;30.48;;
29092;SDS011;16167;48.768;14.984;2024-03-02T05:25:17;59.60;;;30.88;;
29092;SDS011;16167;48.768;14.984;2024-03-02T05:27:45;60.72;;;31.15;;
29092;SDS011;16167;48.768;14.984;2024-03-02T05:30:14;61.10;;;31.83;;
29092;SDS011;16167;48.768;14.984;2024-03-02T05:32:44;49.58;;;24.27;;
29092;SDS011;16167;48.768;14.984;2024-03-02T05:35:12;65.55;;;32.42;;
29092;SDS011;16167;48.768;14.984;2024-03-02T05:37:40;70.07;;;36.08;;
29092;SDS011;16167;48.768;14.984;2024-03-02T05:40:09;64.90;;;30.33;;
29092;SDS011;16167;48.768;14.984;2024-03-02T05:42:39;67.22;;;32.22;;
29092;SDS011;16167;48.768;14.984;2024-03-02T05:45:08;73.20;;;35.50;;
29092;SDS011;16167;48.768;14.984;2024-03-02T05:47:37;65.57;;;32.50;;
29092;SDS011;16167;48.768;14.984;2024-03-02T05:50:07;77.13;;;36.45;;
29092;SDS011;16167;48.768;14.984;2024-03-02T05:52:36;71.22;;;35.15;;
29092;SDS011;16167;48.768;14.984;2024-03-02T05:55:05;73.28;;;37.10;;
29092;SDS011;16167;48.768;14.984;2024-03-02T05:57:34;69.32;;;36.85;;
29092;SDS011;16167;48.768;14.984;2024-03-02T06:00:16;74.05;;;36.55;;
29092;SDS011;16167;48.768;14.984;2024-03-02T06:02:45;75.63;;;37.95;;
29092;SDS011;16167;48.768;14.984;2024-03-02T06:05:14;72.75;;;36.33;;
29092;SDS011;16167;48.768;14.984;2024-03-02T06:07:43;73.75;;;35.80;;
29092;SDS011;16167;48.768;14.984;2024-03-02T06:10:12;80.30;;;36.43;;
29092;SDS011;16167;48.768;14.984;2024-03-02T06:12:40;69.32;;;35.15;;
29092;SDS011;16167;48.768;14.984;2024-03-02T06:15:09;69.38;;;34.28;;
29092;SDS011;16167;48.768;14.984;2024-03-02T06:17:38;52.93;;;27.47;;
29092;SDS011;16167;48.768;14.984;2024-03-02T06:20:06;82.15;;;39.65;;
29092;SDS011;16167;48.768;14.984;2024-03-02T06:22:37;89.47;;;40.80;;
29092;SDS011;16167;48.768;14.984;2024-03-02T06:27:34;76.15;;;33.10;;
29092;SDS011;16167;48.768;14.984;2024-03-02T06:30:03;105.78;;;44.20;;
29092;SDS011;16167;48.768;14.984;2024-03-02T06:32:31;103.57;;;47.33;;
29092;SDS011;16167;48.768;14.984;2024-03-02T06:35:00;104.50;;;46.47;;
29092;SDS011;16167;48.768;14.984;2024-03-02T06:37:30;100.80;;;47.00;;
29092;SDS011;16167;48.768;14.984;2024-03-02T06:40:00;96.38;;;43.28;;
29092;SDS011;16167;48.768;14.984;2024-03-02T06:42:29;107.03;;;47.28;;
29092;SDS011;16167;48.768;14.984;2024-03-02T06:45:00;92.25;;;41.95;;
29092;SDS011;16167;48.768;14.984;2024-03-02T06:47:28;92.20;;;43.70;;
29092;SDS011;16167;48.768;14.984;2024-03-02T06:49:57;91.50;;;41.40;;
29092;SDS011;16167;48.768;14.984;2024-03-02T06:52:25;87.03;;;40.63;;
29092;SDS011;16167;48.768;14.984;2024-03-02T06:54:54;85.38;;;39.85;;
29092;SDS011;16167;48.768;14.984;2024-03-02T06:57:23;82.60;;;39.50;;
29092;SDS011;16167;48.768;14.984;2024-03-02T07:02:21;63.50;;;28.88;;
29092;SDS011;16167;48.768;14.984;2024-03-02T07:04:49;72.63;;;36.55;;
29092;SDS011;16167;48.768;14.984;2024-03-02T07:07:18;86.70;;;39.92;;
29092;SDS011;16167;48.768;14.984;2024-03-02T07:09:45;81.22;;;37.30;;
29092;SDS011;16167;48.768;14.984;2024-03-02T07:12:14;81.93;;;39.85;;
29092;SDS011;16167;48.768;14.984;2024-03-02T07:14:44;79.32;;;38.22;;
29092;SDS011;16167;48.768;14.984;2024-03-02T07:17:34;69.43;;;34.60;;
29092;SDS011;16167;48.768;14.984;2024-03-02T07:22:33;79.50;;;38.15;;
29092;SDS011;16167;48.768;14.984;2024-03-02T07:25:01;65.68;;;32.83;;
29092;SDS011;16167;48.768;14.984;2024-03-02T07:27:30;78.78;;;37.88;;
29092;SDS011;16167;48.768;14.984;2024-03-02T07:30:01;68.75;;;36.58;;
29092;SDS011;16167;48.768;14.984;2024-03-02T07:32:30;68.82;;;34.72;;
29092;SDS011;16167;48.768;14.984;2024-03-02T07:34:58;68.97;;;35.58;;
29092;SDS011;16167;48.768;14.984;2024-03-02T07:37:27;66.30;;;34.08;;
29092;SDS011;16167;48.768;14.984;2024-03-02T07:39:55;69.10;;;37.65;;
29092;SDS011;16167;48.768;14.984;2024-03-02T07:42:24;70.95;;;36.85;;
29092;SDS011;16167;48.768;14.984;2024-03-02T07:44:53;60.20;;;33.20;;
29092;SDS011;16167;48.768;14.984;2024-03-02T07:47:22;71.10;;;37.15;;
29092;SDS011;16167;48.768;14.984;2024-03-02T07:49:51;68.57;;;34.97;;
29092;SDS011;16167;48.768;14.984;2024-03-02T07:52:19;61.50;;;33.47;;
29092;SDS011;16167;48.768;14.984;2024-03-02T07:54:47;65.70;;;35.65;;
29092;SDS011;16167;48.768;14.984;2024-03-02T07:57:16;62.45;;;35.00;;
29092;SDS011;16167;48.768;14.984;2024-03-02T07:59:44;65.32;;;33.17;;
29092;SDS011;16167;48.768;14.984;2024-03-02T08:02:13;61.60;;;33.20;;
29092;SDS011;16167;48.768;14.984;2024-03-02T08:04:43;65.72;;;33.55;;
29092;SDS011;16167;48.768;14.984;2024-03-02T08:07:12;60.53;;;32.95;;
29092;SDS011;16167;48.768;14.984;2024-03-02T08:09:40;66.07;;;34.28;;
29092;SDS011;16167;48.768;14.984;2024-03-02T08:12:09;60.22;;;33.65;;
29092;SDS011;16167;48.768;14.984;2024-03-02T08:14:38;53.30;;;28.02;;
29092;SDS011;16167;48.768;14.984;2024-03-02T08:17:07;60.08;;;32.50;;
29092;SDS011;16167;48.768;14.984;2024-03-02T08:19:36;64.05;;;33.38;;
29092;SDS011;16167;48.768;14.984;2024-03-02T08:22:06;65.03;;;34.00;;
29092;SDS011;16167;48.768;14.984;2024-03-02T08:24:35;60.28;;;32.58;;
29092;SDS011;16167;48.768;14.984;2024-03-02T08:27:04;60.78;;;30.98;;
29092;SDS011;16167;48.768;14.984;2024-03-02T08:29:32;50.88;;;29.15;;
29092;SDS011;16167;48.768;14.984;2024-03-02T08:32:01;41.40;;;23.50;;
29092;SDS011;16167;48.768;14.984;2024-03-02T08:34:30;58.65;;;33.17;;
29092;SDS011;16167;48.768;14.984;2024-03-02T08:36:58;45.70;;;23.17;;
29092;SDS011;16167;48.768;14.984;2024-03-02T08:39:29;60.00;;;33.95;;
29092;SDS011;16167;48.768;14.984;2024-03-02T08:41:57;56.25;;;31.92;;
29092;SDS011;16167;48.768;14.984;2024-03-02T08:44:25;57.53;;;31.52;;
29092;SDS011;16167;48.768;14.984;2024-03-02T08:46:54;52.22;;;30.40;;
29092;SDS011;16167;48.768;14.984;2024-03-02T08:49:22;57.88;;;32.08;;
29092;SDS011;16167;48.768;14.984;2024-03-02T08:51:50;55.95;;;30.27;;
29092;SDS011;16167;48.768;14.984;2024-03-02T08:54:21;50.33;;;29.58;;
29092;SDS011;16167;48.768;14.984;2024-03-02T08:56:51;52.03;;;29.83;;
29092;SDS011;16167;48.768;14.984;2024-03-02T08:59:19;55.42;;;31.88;;
29092;SDS011;16167;48.768;14.984;2024-03-02T09:01:48;52.80;;;30.17;;
29092;SDS011;16167;48.768;14.984;2024-03-02T09:04:16;51.60;;;28.83;;
29092;SDS011;16167;48.768;14.984;2024-03-02T09:06:44;60.25;;;30.70;;
29092;SDS011;16167;48.768;14.984;2024-03-02T09:09:13;52.90;;;30.50;;
29092;SDS011;16167;48.768;14.984;2024-03-02T09:11:41;55.25;;;32.78;;
29092;SDS011;16167;48.768;14.984;2024-03-02T09:14:10;55.15;;;29.90;;
29092;SDS011;16167;48.768;14.984;2024-03-02T09:16:41;56.10;;;30.42;;
29092;SDS011;16167;48.768;14.984;2024-03-02T09:19:09;48.83;;;29.33;;
29092;SDS011;16167;48.768;14.984;2024-03-02T09:21:37;50.25;;;29.95;;
29092;SDS011;16167;48.768;14.984;2024-03-02T09:24:06;46.20;;;27.75;;
29092;SDS011;16167;48.768;14.984;2024-03-02T09:26:34;45.15;;;27.25;;
29092;SDS011;16167;48.768;14.984;2024-03-02T09:29:02;53.60;;;28.77;;
29092;SDS011;16167;48.768;14.984;2024-03-02T09:31:32;46.63;;;27.00;;
29092;SDS011;16167;48.768;14.984;2024-03-02T09:34:00;47.50;;;27.85;;
29092;SDS011;16167;48.768;14.984;2024-03-02T09:36:28;41.50;;;25.42;;
29092;SDS011;16167;48.768;14.984;2024-03-02T09:38:57;49.50;;;26.88;;
29092;SDS011;16167;48.768;14.984;2024-03-02T09:41:26;44.85;;;27.58;;
29092;SDS011;16167;48.768;14.984;2024-03-02T09:43:55;51.75;;;28.38;;
29092;SDS011;16167;48.768;14.984;2024-03-02T09:46:24;51.00;;;27.67;;
29092;SDS011;16167;48.768;14.984;2024-03-02T09:48:53;45.67;;;27.30;;
29092;SDS011;16167;48.768;14.984;2024-03-02T09:51:22;41.60;;;26.20;;
29092;SDS011;16167;48.768;14.984;2024-03-02T09:53:51;43.95;;;25.73;;
29092;SDS011;16167;48.768;14.984;2024-03-02T09:56:23;42.70;;;25.08;;
29092;SDS011;16167;48.768;14.984;2024-03-02T09:58:51;40.70;;;24.90;;
29092;SDS011;16167;48.768;14.984;2024-03-02T10:01:20;47.38;;;26.52;;
29092;SDS011;16167;48.768;14.984;2024-03-02T10:03:48;48.22;;;27.23;;
29092;SDS011;16167;48.768;14.984;2024-03-02T10:06:22;43.38;;;25.38;;
29092;SDS011;16167;48.768;14.984;2024-03-02T10:08:51;44.33;;;27.05;;
29092;SDS011;16167;48.768;14.984;2024-03-02T10:14:05;46.30;;;26.75;;
29092;SDS011;16167;48.768;14.984;2024-03-02T10:16:37;45.60;;;27.55;;
29092;SDS011;16167;48.768;14.984;2024-03-02T10:19:16;51.10;;;29.50;;
29092;SDS011;16167;48.768;14.984;2024-03-02T10:21:47;49.45;;;28.35;;
29092;SDS011;16167;48.768;14.984;2024-03-02T10:24:17;47.85;;;27.75;;
29092;SDS011;16167;48.768;14.984;2024-03-02T10:26:46;47.85;;;27.55;;
29092;SDS011;16167;48.768;14.984;2024-03-02T10:29:14;54.53;;;28.33;;
29092;SDS011;16167;48.768;14.984;2024-03-02T10:31:44;45.28;;;27.50;;
29092;SDS011;16167;48.768;14.984;2024-03-02T10:34:13;47.78;;;28.40;;
29092;SDS011;16167;48.768;14.984;2024-03-02T10:36:42;45.95;;;28.35;;
29092;SDS011;16167;48.768;14.984;2024-03-02T10:39:14;44.08;;;27.55;;
29092;SDS011;16167;48.768;14.984;2024-03-02T10:41:42;45.85;;;27.13;;
29092;SDS011;16167;48.768;14.984;2024-03-02T10:44:13;42.35;;;25.30;;
29092;SDS011;16167;48.768;14.984;2024-03-02T10:46:41;44.30;;;27.53;;
29092;SDS011;16167;48.768;14.984;2024-03-02T10:49:12;44.10;;;26.42;;
29092;SDS011;16167;48.768;14.984;2024-03-02T10:51:41;40.37;;;24.40;;
29092;SDS011;16167;48.768;14.984;2024-03-02T10:54:09;45.40;;;27.05;;
29092;SDS011;16167;48.768;14.984;2024-03-02T10:56:39;40.30;;;25.38;;
29092;SDS011;16167;48.768;14.984;2024-03-02T10:59:13;41.95;;;26.15;;
29092;SDS011;16167;48.768;14.984;2024-03-02T11:01:49;42.58;;;25.88;;
29092;SDS011;16167;48.768;14.984;2024-03-02T11:04:19;41.92;;;25.30;;
29092;SDS011;16167;48.768;14.984;2024-03-02T11:06:49;42.40;;;26.55;;
29092;SDS011;16167;48.768;14.984;2024-03-02T11:09:19;42.38;;;24.60;;
29092;SDS011;16167;48.768;14.984;2024-03-02T11:11:54;42.17;;;25.85;;
29092;SDS011;16167;48.768;14.984;2024-03-02T11:14:26;43.03;;;26.00;;
29092;SDS011;16167;48.768;14.984;2024-03-02T11:16:56;43.38;;;26.92;;
29092;SDS011;16167;48.768;14.984;2024-03-02T11:19:25;46.83;;;26.85;;
29092;SDS011;16167;48.768;14.984;2024-03-02T11:21:54;42.28;;;25.38;;
29092;SDS011;16167;48.768;14.984;2024-03-02T11:24:33;40.55;;;24.92;;
29092;SDS011;16167;48.768;14.984;2024-03-02T11:27:05;41.65;;;24.75;;
29092;SDS011;16167;48.768;14.984;2024-03-02T11:29:44;40.13;;;25.70;;
29092;SDS011;16167;48.768;14.984;2024-03-02T11:32:15;40.67;;;25.63;;
29092;SDS011;16167;48.768;14.984;2024-03-02T11:34:45;39.03;;;24.15;;
29092;SDS011;16167;48.768;14.984;2024-03-02T11:37:14;42.53;;;25.85;;
29092;SDS011;16167;48.768;14.984;2024-03-02T11:39:44;41.28;;;23.85;;
29092;SDS011;16167;48.768;14.984;2024-03-02T11:42:14;41.80;;;25.33;;
29092;SDS011;16167;48.768;14.984;2024-03-02T11:44:43;43.40;;;24.60;;
29092;SDS011;16167;48.768;14.984;2024-03-02T11:47:14;37.95;;;23.23;;
29092;SDS011;16167;48.768;14.984;2024-03-02T11:49:43;42.75;;;25.08;;
29092;SDS011;16167;48.768;14.984;2024-03-02T11:52:13;40.58;;;24.30;;
29092;SDS011;16167;48.768;14.984;2024-03-02T11:54:42;38.88;;;23.98;;
29092;SDS011;16167;48.768;14.984;2024-03-02T11:57:16;38.47;;;22.73;;
29092;SDS011;16167;48.768;14.984;2024-03-02T11:59:46;40.88;;;24.60;;
29092;SDS011;16167;48.768;14.984;2024-03-02T12:02:14;38.95;;;23.38;;
29092;SDS011;16167;48.768;14.984;2024-03-02T12:04:44;36.42;;;23.17;;
29092;SDS011;16167;48.768;14.984;2024-03-02T12:07:18;35.17;;;23.27;;
29092;SDS011;16167;48.768;14.984;2024-03-02T12:09:48;36.92;;;22.45;;
29092;SDS011;16167;48.768;14.984;2024-03-02T12:12:19;36.22;;;22.55;;
29092;SDS011;16167;48.768;14.984;2024-03-02T12:14:52;36.38;;;23.40;;
29092;SDS011;16167;48.768;14.984;2024-03-02T12:17:22;35.90;;;23.48;;
29092;SDS011;16167;48.768;14.984;2024-03-02T12:19:50;33.83;;;21.80;;
29092;SDS011;16167;48.768;14.984;2024-03-02T12:22:19;33.07;;;21.33;;
29092;SDS011;16167;48.768;14.984;2024-03-02T12:27:16;35.75;;;21.85;;
29092;SDS011;16167;48.768;14.984;2024-03-02T12:29:48;35.05;;;21.27;;
29092;SDS011;16167;48.768;14.984;2024-03-02T12:32:16;37.22;;;22.35;;
29092;SDS011;16167;48.768;14.984;2024-03-02T12:34:46;34.60;;;21.02;;
29092;SDS011;16167;48.768;14.984;2024-03-02T12:37:15;35.75;;;21.85;;
29092;SDS011;16167;48.768;14.984;2024-03-02T12:39:44;35.38;;;21.85;;
29092;SDS011;16167;48.768;14.984;2024-03-02T12:42:13;33.17;;;20.90;;
29092;SDS011;16167;48.768;14.984;2024-03-02T12:44:43;35.42;;;21.15;;
29092;SDS011;16167;48.768;14.984;2024-03-02T12:47:11;32.63;;;22.33;;
29092;SDS011;16167;48.768;14.984;2024-03-02T12:49:40;33.30;;;21.13;;
29092;SDS011;16167;48.768;14.984;2024-03-02T12:52:08;36.97;;;20.75;;
29092;SDS011;16167;48.768;14.984;2024-03-02T12:54:39;32.47;;;20.90;;
29092;SDS011;16167;48.768;14.984;2024-03-02T12:57:07;34.15;;;21.35;;
29092;SDS011;16167;48.768;14.984;2024-03-02T12:59:35;43.03;;;26.30;;
29092;SDS011;16167;48.768;14.984;2024-03-02T13:02:05;33.05;;;20.60;;
29092;SDS011;16167;48.768;14.984;2024-03-02T13:04:36;34.30;;;21.27;;
29092;SDS011;16167;48.768;14.984;2024-03-02T13:07:05;32.88;;;20.05;;
29092;SDS011;16167;48.768;14.984;2024-03-02T13:09:33;33.15;;;20.60;;
29092;SDS011;16167;48.768;14.984;2024-03-02T13:12:02;36.03;;;21.08;;
29092;SDS011;16167;48.768;14.984;2024-03-02T13:14:32;32.72;;;21.05;;
29092;SDS011;16167;48.768;14.984;2024-03-02T13:17:01;32.42;;;20.75;;
29092;SDS011;16167;48.768;14.984;2024-03-02T13:19:33;32.60;;;21.25;;
29092;SDS011;16167;48.768;14.984;2024-03-02T13:22:01;32.75;;;21.30;;
29092;SDS011;16167;48.768;14.984;2024-03-02T13:24:30;33.50;;;20.58;;
29092;SDS011;16167;48.768;14.984;2024-03-02T13:26:59;31.52;;;21.60;;
29092;SDS011;16167;48.768;14.984;2024-03-02T13:29:30;35.50;;;22.27;;
29092;SDS011;16167;48.768;14.984;2024-03-02T13:31:58;40.00;;;23.92;;
29092;SDS011;16167;48.768;14.984;2024-03-02T13:34:26;36.97;;;23.42;;
29092;SDS011;16167;48.768;14.984;2024-03-02T13:36:56;36.03;;;22.80;;
29092;SDS011;16167;48.768;14.984;2024-03-02T13:39:24;37.58;;;23.30;;
29092;SDS011;16167;48.768;14.984;2024-03-02T13:41:53;38.13;;;25.02;;
29092;SDS011;16167;48.768;14.984;2024-03-02T13:44:29;37.55;;;23.63;;
29092;SDS011;16167;48.768;14.984;2024-03-02T13:46:59;34.63;;;22.52;;
29092;SDS011;16167;48.768;14.984;2024-03-02T13:49:27;34.53;;;22.50;;
29092;SDS011;16167;48.768;14.984;2024-03-02T13:52:04;37.00;;;23.85;;
29092;SDS011;16167;48.768;14.984;2024-03-02T13:54:37;33.70;;;22.52;;
29092;SDS011;16167;48.768;14.984;2024-03-02T13:57:06;32.78;;;21.33;;
29092;SDS011;16167;48.768;14.984;2024-03-02T13:59:35;37.25;;;22.75;;
29092;SDS011;16167;48.768;14.984;2024-03-02T14:02:04;30.20;;;21.35;;
29092;SDS011;16167;48.768;14.984;2024-03-02T14:04:33;36.78;;;21.95;;
29092;SDS011;16167;48.768;14.984;2024-03-02T14:07:03;33.10;;;22.20;;
29092;SDS011;16167;48.768;14.984;2024-03-02T14:09:33;30.60;;;20.48;;
29092;SDS011;16167;48.768;14.984;2024-03-02T14:12:03;33.47;;;21.00;;
29092;SDS011;16167;48.768;14.984;2024-03-02T14:14:32;35.60;;;20.75;;
29092;SDS011;16167;48.768;14.984;2024-03-02T14:17:00;32.45;;;20.58;;
29092;SDS011;16167;48.768;14.984;2024-03-02T14:19:30;31.27;;;21.20;;
29092;SDS011;16167;48.768;14.984;2024-03-02T14:21:59;31.80;;;20.40;;
29092;SDS011;16167;48.768;14.984;2024-03-02T14:24:29;32.65;;;19.85;;
29092;SDS011;16167;48.768;14.984;2024-03-02T14:26:57;33.67;;;20.45;;
29092;SDS011;16167;48.768;14.984;2024-03-02T14:29:40;28.45;;;20.17;;
29092;SDS011;16167;48.768;14.984;2024-03-02T14:32:10;29.58;;;19.58;;
29092;SDS011;16167;48.768;14.984;2024-03-02T14:34:38;31.67;;;21.40;;
29092;SDS011;16167;48.768;14.984;2024-03-02T14:37:06;31.50;;;19.60;;
29092;SDS011;16167;48.768;14.984;2024-03-02T14:39:37;31.77;;;20.98;;
29092;SDS011;16167;48.768;14.984;2024-03-02T14:42:05;30.70;;;20.85;;
29092;SDS011;16167;48.768;14.984;2024-03-02T14:44:34;34.75;;;22.77;;
29092;SDS011;16167;48.768;14.984;2024-03-02T14:47:02;33.80;;;21.45;;
29092;SDS011;16167;48.768;14.984;2024-03-02T14:49:31;37.78;;;22.90;;
29092;SDS011;16167;48.768;14.984;2024-03-02T14:52:02;38.17;;;22.90;;
29092;SDS011;16167;48.768;14.984;2024-03-02T14:54:31;39.00;;;24.98;;
29092;SDS011;16167;48.768;14.984;2024-03-02T14:57:01;39.47;;;26.02;;
29092;SDS011;16167;48.768;14.984;2024-03-02T14:59:29;41.08;;;25.70;;
29092;SDS011;16167;48.768;14.984;2024-03-02T15:01:57;41.67;;;26.38;;